sensor_id;sensor_type;location;lat;lon;timestamp;temperature;humidity
7530;DHT22;3806;52.270;10.544;2024-03-22T00:01:11;10.20;99.90
7530;DHT22;3806;52.270;10.544;2024-03-22T00:03:37;10.10;99.90
7530;DHT22;3806;52.270;10.544;2024-03-22T00:06:02;10.10;99.90
7530;DHT22;3806;52.270;10.544;2024-03-22T00:08:28;10.10;99.90
7530;DHT22;3806;52.270;10.544;2024-03-22T00:10:53;10.10;99.90
7530;DHT22;3806;52.270;10.544;2024-03-22T00:13:19;10.20;99.90
7530;DHT22;3806;52.270;10.544;2024-03-22T00:15:44;10.10;99.90
7530;DHT22;3806;52.270;10.544;2024-03-22T00:18:10;10.10;99.90
7530;DHT22;3806;52.270;10.544;2024-03-22T00:20:36;10.20;99.90
7530;DHT22;3806;52.270;10.544;2024-03-22T00:23:02;10.20;99.90
7530;DHT22;3806;52.270;10.544;2024-03-22T00:25:27;10.20;99.90
7530;DHT22;3806;52.270;10.544;2024-03-22T00:27:53;10.10;99.90
7530;DHT22;3806;52.270;10.544;2024-03-22T00:30:19;10.10;99.90
7530;DHT22;3806;52.270;10.544;2024-03-22T00:32:44;10.20;99.90
7530;DHT22;3806;52.270;10.544;2024-03-22T00:35:10;10.10;99.90
7530;DHT22;3806;52.270;10.544;2024-03-22T00:37:36;10.10;99.90
7530;DHT22;3806;52.270;10.544;2024-03-22T00:40:01;10.20;99.90
7530;DHT22;3806;52.270;10.544;2024-03-22T00:42:27;10.20;99.90
7530;DHT22;3806;52.270;10.544;2024-03-22T00:44:52;10.20;99.90
7530;DHT22;3806;52.270;10.544;2024-03-22T00:47:18;10.20;99.90
7530;DHT22;3806;52.270;10.544;2024-03-22T00:49:44;10.30;99.90
7530;DHT22;3806;52.270;10.544;2024-03-22T00:52:09;10.30;99.90
7530;DHT22;3806;52.270;10.544;2024-03-22T00:54:35;10.30;99.90
7530;DHT22;3806;52.270;10.544;2024-03-22T00:57:01;10.30;99.90
7530;DHT22;3806;52.270;10.544;2024-03-22T00:59:26;10.30;99.90
7530;DHT22;3806;52.270;10.544;2024-03-22T01:01:52;10.30;99.90
7530;DHT22;3806;52.270;10.544;2024-03-22T01:04:17;10.30;99.90
7530;DHT22;3806;52.270;10.544;2024-03-22T01:06:43;10.40;99.90
7530;DHT22;3806;52.270;10.544;2024-03-22T01:09:08;10.30;99.90
7530;DHT22;3806;52.270;10.544;2024-03-22T01:11:34;10.40;99.90
7530;DHT22;3806;52.270;10.544;2024-03-22T01:13:59;10.40;99.90
7530;DHT22;3806;52.270;10.544;2024-03-22T01:16:25;10.40;99.90
7530;DHT22;3806;52.270;10.544;2024-03-22T01:18:50;10.40;99.90
7530;DHT22;3806;52.270;10.544;2024-03-22T01:21:16;10.40;99.90
7530;DHT22;3806;52.270;10.544;2024-03-22T01:23:41;10.40;99.90
7530;DHT22;3806;52.270;10.544;2024-03-22T01:26:07;10.40;99.90
7530;DHT22;3806;52.270;10.544;2024-03-22T01:28:32;10.40;99.90
7530;DHT22;3806;52.270;10.544;2024-03-22T01:30:58;10.40;99.90
7530;DHT22;3806;52.270;10.544;2024-03-22T01:33:23;10.40;99.90
7530;DHT22;3806;52.270;10.544;2024-03-22T01:35:49;10.40;99.90
7530;DHT22;3806;52.270;10.544;2024-03-22T01:38:14;10.40;99.90
7530;DHT22;3806;52.270;10.544;2024-03-22T01:40:40;10.40;99.90
7530;DHT22;3806;52.270;10.544;2024-03-22T01:43:05;10.40;99.90
7530;DHT22;3806;52.270;10.544;2024-03-22T01:45:32;10.40;99.90
7530;DHT22;3806;52.270;10.544;2024-03-22T01:47:58;10.40;99.90
7530;DHT22;3806;52.270;10.544;2024-03-22T01:50:25;10.40;99.90
7530;DHT22;3806;52.270;10.544;2024-03-22T01:52:51;10.40;99.90
7530;DHT22;3806;52.270;10.544;2024-03-22T01:55:16;10.40;99.90
7530;DHT22;3806;52.270;10.544;2024-03-22T01:57:42;10.40;99.90
7530;DHT22;3806;52.270;10.544;2024-03-22T02:00:08;10.40;99.90
7530;DHT22;3806;52.270;10.544;2024-03-22T02:02:35;10.50;99.90
7530;DHT22;3806;52.270;10.544;2024-03-22T02:05:14;10.50;99.90
7530;DHT22;3806;52.270;10.544;2024-03-22T02:07:41;10.50;99.90
7530;DHT22;3806;52.270;10.544;2024-03-22T02:10:08;10.50;99.90
7530;DHT22;3806;52.270;10.544;2024-03-22T02:12:36;10.50;99.90
7530;DHT22;3806;52.270;10.544;2024-03-22T02:15:02;10.50;99.90
7530;DHT22;3806;52.270;10.544;2024-03-22T02:17:28;10.50;99.90
7530;DHT22;3806;52.270;10.544;2024-03-22T02:19:53;10.50;99.90
7530;DHT22;3806;52.270;10.544;2024-03-22T02:22:19;10.50;99.90
7530;DHT22;3806;52.270;10.544;2024-03-22T02:24:44;10.50;99.90
7530;DHT22;3806;52.270;10.544;2024-03-22T02:27:10;10.60;99.90
7530;DHT22;3806;52.270;10.544;2024-03-22T02:29:35;10.60;99.90
7530;DHT22;3806;52.270;10.544;2024-03-22T02:32:01;10.60;99.90
7530;DHT22;3806;52.270;10.544;2024-03-22T02:34:26;10.60;99.90
7530;DHT22;3806;52.270;10.544;2024-03-22T02:36:52;10.60;99.90
7530;DHT22;3806;52.270;10.544;2024-03-22T02:39:18;10.60;99.90
7530;DHT22;3806;52.270;10.544;2024-03-22T02:41:44;10.60;99.90
7530;DHT22;3806;52.270;10.544;2024-03-22T02:44:09;10.60;99.90
7530;DHT22;3806;52.270;10.544;2024-03-22T02:46:35;10.60;99.90
7530;DHT22;3806;52.270;10.544;2024-03-22T02:49:00;10.60;99.90
7530;DHT22;3806;52.270;10.544;2024-03-22T02:51:26;10.60;99.90
7530;DHT22;3806;52.270;10.544;2024-03-22T02:53:51;10.60;99.90
7530;DHT22;3806;52.270;10.544;2024-03-22T02:56:16;10.60;99.90
7530;DHT22;3806;52.270;10.544;2024-03-22T02:58:42;10.60;99.90
7530;DHT22;3806;52.270;10.544;2024-03-22T03:01:07;10.60;99.90
7530;DHT22;3806;52.270;10.544;2024-03-22T03:03:33;10.60;99.90
7530;DHT22;3806;52.270;10.544;2024-03-22T03:05:59;10.60;99.90
7530;DHT22;3806;52.270;10.544;2024-03-22T03:08:24;10.60;99.90
7530;DHT22;3806;52.270;10.544;2024-03-22T03:10:50;10.60;99.90
7530;DHT22;3806;52.270;10.544;2024-03-22T03:13:15;10.60;99.90
7530;DHT22;3806;52.270;10.544;2024-03-22T03:15:41;10.60;99.90
7530;DHT22;3806;52.270;10.544;2024-03-22T03:18:06;10.60;99.90
7530;DHT22;3806;52.270;10.544;2024-03-22T03:20:32;10.60;99.90
7530;DHT22;3806;52.270;10.544;2024-03-22T03:22:57;10.50;99.90
7530;DHT22;3806;52.270;10.544;2024-03-22T03:25:27;10.50;99.90
7530;DHT22;3806;52.270;10.544;2024-03-22T03:27:53;10.50;99.90
7530;DHT22;3806;52.270;10.544;2024-03-22T03:30:18;10.50;99.90
7530;DHT22;3806;52.270;10.544;2024-03-22T03:32:44;10.50;99.90
7530;DHT22;3806;52.270;10.544;2024-03-22T03:35:10;10.60;99.90
7530;DHT22;3806;52.270;10.544;2024-03-22T03:37:35;10.60;99.90
7530;DHT22;3806;52.270;10.544;2024-03-22T03:40:01;10.60;99.90
7530;DHT22;3806;52.270;10.544;2024-03-22T03:42:26;10.60;99.90
7530;DHT22;3806;52.270;10.544;2024-03-22T03:44:52;10.60;99.90
7530;DHT22;3806;52.270;10.544;2024-03-22T03:47:17;10.60;99.90
7530;DHT22;3806;52.270;10.544;2024-03-22T03:49:45;10.60;99.90
7530;DHT22;3806;52.270;10.544;2024-03-22T03:52:11;10.60;99.90
7530;DHT22;3806;52.270;10.544;2024-03-22T03:54:37;10.60;99.90
7530;DHT22;3806;52.270;10.544;2024-03-22T03:57:02;10.60;99.90
7530;DHT22;3806;52.270;10.544;2024-03-22T03:59:28;10.50;99.90
7530;DHT22;3806;52.270;10.544;2024-03-22T04:01:53;10.50;99.90
7530;DHT22;3806;52.270;10.544;2024-03-22T04:04:19;10.50;99.90
7530;DHT22;3806;52.270;10.544;2024-03-22T04:06:45;10.50;99.90
7530;DHT22;3806;52.270;10.544;2024-03-22T04:09:10;10.50;99.90
7530;DHT22;3806;52.270;10.544;2024-03-22T04:11:36;10.50;99.90
7530;DHT22;3806;52.270;10.544;2024-03-22T04:14:03;10.50;99.90
7530;DHT22;3806;52.270;10.544;2024-03-22T04:16:28;10.50;99.90
7530;DHT22;3806;52.270;10.544;2024-03-22T04:18:54;10.50;99.90
7530;DHT22;3806;52.270;10.544;2024-03-22T04:21:19;10.50;99.90
7530;DHT22;3806;52.270;10.544;2024-03-22T04:23:44;10.50;99.90
7530;DHT22;3806;52.270;10.544;2024-03-22T04:26:10;10.50;99.90
7530;DHT22;3806;52.270;10.544;2024-03-22T04:28:35;10.60;99.90
7530;DHT22;3806;52.270;10.544;2024-03-22T04:31:06;10.60;99.90
7530;DHT22;3806;52.270;10.544;2024-03-22T04:33:33;10.60;99.90
7530;DHT22;3806;52.270;10.544;2024-03-22T04:35:59;10.60;99.90
7530;DHT22;3806;52.270;10.544;2024-03-22T04:38:26;10.60;99.90
7530;DHT22;3806;52.270;10.544;2024-03-22T04:40:52;10.60;99.90
7530;DHT22;3806;52.270;10.544;2024-03-22T04:43:17;10.60;99.90
7530;DHT22;3806;52.270;10.544;2024-03-22T04:45:44;10.60;99.90
7530;DHT22;3806;52.270;10.544;2024-03-22T04:48:09;10.60;99.90
7530;DHT22;3806;52.270;10.544;2024-03-22T04:50:35;10.60;99.90
7530;DHT22;3806;52.270;10.544;2024-03-22T04:53:02;10.60;99.90
7530;DHT22;3806;52.270;10.544;2024-03-22T04:55:27;10.60;99.90
7530;DHT22;3806;52.270;10.544;2024-03-22T04:57:53;10.60;99.90
7530;DHT22;3806;52.270;10.544;2024-03-22T05:00:18;10.60;99.90
7530;DHT22;3806;52.270;10.544;2024-03-22T05:02:44;10.60;99.90
7530;DHT22;3806;52.270;10.544;2024-03-22T05:05:09;10.60;99.90
7530;DHT22;3806;52.270;10.544;2024-03-22T05:07:35;10.60;99.90
7530;DHT22;3806;52.270;10.544;2024-03-22T05:10:01;10.60;99.90
7530;DHT22;3806;52.270;10.544;2024-03-22T05:12:26;10.60;99.90
7530;DHT22;3806;52.270;10.544;2024-03-22T05:14:52;10.60;99.90
7530;DHT22;3806;52.270;10.544;2024-03-22T05:17:17;10.60;99.90
7530;DHT22;3806;52.270;10.544;2024-03-22T05:19:43;10.60;99.90
7530;DHT22;3806;52.270;10.544;2024-03-22T05:22:08;10.60;99.90
7530;DHT22;3806;52.270;10.544;2024-03-22T05:24:34;10.70;99.90
7530;DHT22;3806;52.270;10.544;2024-03-22T05:26:59;10.70;99.90
7530;DHT22;3806;52.270;10.544;2024-03-22T05:29:25;10.70;99.90
7530;DHT22;3806;52.270;10.544;2024-03-22T05:31:51;10.80;99.90
7530;DHT22;3806;52.270;10.544;2024-03-22T05:34:17;10.80;99.90
7530;DHT22;3806;52.270;10.544;2024-03-22T05:36:43;10.80;99.90
7530;DHT22;3806;52.270;10.544;2024-03-22T05:39:09;10.80;99.90
7530;DHT22;3806;52.270;10.544;2024-03-22T05:41:38;10.80;99.90
7530;DHT22;3806;52.270;10.544;2024-03-22T05:44:03;10.80;99.90
7530;DHT22;3806;52.270;10.544;2024-03-22T05:46:29;10.90;99.90
7530;DHT22;3806;52.270;10.544;2024-03-22T05:48:56;10.90;99.90
7530;DHT22;3806;52.270;10.544;2024-03-22T05:51:21;10.90;99.90
7530;DHT22;3806;52.270;10.544;2024-03-22T05:53:47;10.90;99.90
7530;DHT22;3806;52.270;10.544;2024-03-22T05:56:12;10.90;99.90
7530;DHT22;3806;52.270;10.544;2024-03-22T05:58:38;10.90;99.90
7530;DHT22;3806;52.270;10.544;2024-03-22T06:01:04;11.00;99.90
7530;DHT22;3806;52.270;10.544;2024-03-22T06:03:30;11.00;99.90
7530;DHT22;3806;52.270;10.544;2024-03-22T06:05:55;11.10;99.90
7530;DHT22;3806;52.270;10.544;2024-03-22T06:08:25;11.10;99.90
7530;DHT22;3806;52.270;10.544;2024-03-22T06:10:54;11.20;99.90
7530;DHT22;3806;52.270;10.544;2024-03-22T06:13:19;11.20;99.90
7530;DHT22;3806;52.270;10.544;2024-03-22T06:15:48;11.30;99.90
7530;DHT22;3806;52.270;10.544;2024-03-22T06:18:14;11.30;99.90
7530;DHT22;3806;52.270;10.544;2024-03-22T06:20:40;11.30;99.90
7530;DHT22;3806;52.270;10.544;2024-03-22T06:23:05;11.20;99.90
7530;DHT22;3806;52.270;10.544;2024-03-22T06:25:31;11.20;99.90
7530;DHT22;3806;52.270;10.544;2024-03-22T06:27:56;11.30;99.90
7530;DHT22;3806;52.270;10.544;2024-03-22T06:30:22;11.30;99.90
7530;DHT22;3806;52.270;10.544;2024-03-22T06:32:47;11.30;99.90
7530;DHT22;3806;52.270;10.544;2024-03-22T06:35:13;11.30;99.90
7530;DHT22;3806;52.270;10.544;2024-03-22T06:37:39;11.30;99.90
7530;DHT22;3806;52.270;10.544;2024-03-22T06:40:06;11.40;99.90
7530;DHT22;3806;52.270;10.544;2024-03-22T06:42:32;11.40;99.90
7530;DHT22;3806;52.270;10.544;2024-03-22T06:44:57;11.40;99.90
7530;DHT22;3806;52.270;10.544;2024-03-22T06:47:23;11.40;99.90
7530;DHT22;3806;52.270;10.544;2024-03-22T06:49:48;11.50;99.90
7530;DHT22;3806;52.270;10.544;2024-03-22T06:52:14;11.60;99.90
7530;DHT22;3806;52.270;10.544;2024-03-22T06:54:40;11.60;99.90
7530;DHT22;3806;52.270;10.544;2024-03-22T06:57:06;11.70;99.90
7530;DHT22;3806;52.270;10.544;2024-03-22T06:59:32;11.80;99.90
7530;DHT22;3806;52.270;10.544;2024-03-22T07:01:57;11.80;99.90
7530;DHT22;3806;52.270;10.544;2024-03-22T07:04:23;11.80;99.90
7530;DHT22;3806;52.270;10.544;2024-03-22T07:06:48;11.80;99.90
7530;DHT22;3806;52.270;10.544;2024-03-22T07:09:14;11.80;99.90
7530;DHT22;3806;52.270;10.544;2024-03-22T07:11:39;11.80;99.90
7530;DHT22;3806;52.270;10.544;2024-03-22T07:14:05;11.80;99.90
7530;DHT22;3806;52.270;10.544;2024-03-22T07:16:30;11.80;99.90
7530;DHT22;3806;52.270;10.544;2024-03-22T07:18:56;11.90;99.90
7530;DHT22;3806;52.270;10.544;2024-03-22T07:21:22;11.90;99.90
7530;DHT22;3806;52.270;10.544;2024-03-22T07:23:47;11.90;99.90
7530;DHT22;3806;52.270;10.544;2024-03-22T07:26:12;11.90;99.90
7530;DHT22;3806;52.270;10.544;2024-03-22T07:28:38;11.90;99.90
7530;DHT22;3806;52.270;10.544;2024-03-22T07:31:04;12.00;99.90
7530;DHT22;3806;52.270;10.544;2024-03-22T07:33:31;12.00;99.90
7530;DHT22;3806;52.270;10.544;2024-03-22T07:36:01;12.00;99.90
7530;DHT22;3806;52.270;10.544;2024-03-22T07:38:27;12.00;99.90
7530;DHT22;3806;52.270;10.544;2024-03-22T07:40:52;12.00;99.90
7530;DHT22;3806;52.270;10.544;2024-03-22T07:43:18;12.00;99.90
7530;DHT22;3806;52.270;10.544;2024-03-22T07:45:43;12.10;99.90
7530;DHT22;3806;52.270;10.544;2024-03-22T07:48:09;12.20;99.90
7530;DHT22;3806;52.270;10.544;2024-03-22T07:50:35;12.30;99.90
7530;DHT22;3806;52.270;10.544;2024-03-22T07:53:01;12.50;99.90
7530;DHT22;3806;52.270;10.544;2024-03-22T07:55:26;12.70;99.90
7530;DHT22;3806;52.270;10.544;2024-03-22T07:57:52;12.80;99.90
7530;DHT22;3806;52.270;10.544;2024-03-22T08:00:17;12.90;99.90
7530;DHT22;3806;52.270;10.544;2024-03-22T08:02:43;13.10;99.90
7530;DHT22;3806;52.270;10.544;2024-03-22T08:05:09;13.30;99.90
7530;DHT22;3806;52.270;10.544;2024-03-22T08:07:34;13.50;99.90
7530;DHT22;3806;52.270;10.544;2024-03-22T08:10:00;13.70;99.90
7530;DHT22;3806;52.270;10.544;2024-03-22T08:12:27;13.80;99.90
7530;DHT22;3806;52.270;10.544;2024-03-22T08:14:53;13.70;99.90
7530;DHT22;3806;52.270;10.544;2024-03-22T08:17:18;13.70;99.90
7530;DHT22;3806;52.270;10.544;2024-03-22T08:19:44;13.70;99.90
7530;DHT22;3806;52.270;10.544;2024-03-22T08:22:10;13.70;99.90
7530;DHT22;3806;52.270;10.544;2024-03-22T08:24:35;13.60;99.90
7530;DHT22;3806;52.270;10.544;2024-03-22T08:27:01;13.60;99.90
7530;DHT22;3806;52.270;10.544;2024-03-22T08:29:26;13.50;99.90
7530;DHT22;3806;52.270;10.544;2024-03-22T08:31:52;13.50;99.90
7530;DHT22;3806;52.270;10.544;2024-03-22T08:34:18;13.50;99.90
7530;DHT22;3806;52.270;10.544;2024-03-22T08:36:44;13.50;99.90
7530;DHT22;3806;52.270;10.544;2024-03-22T08:39:09;13.60;99.90
7530;DHT22;3806;52.270;10.544;2024-03-22T08:41:36;13.50;99.90
7530;DHT22;3806;52.270;10.544;2024-03-22T08:44:02;13.50;99.90
7530;DHT22;3806;52.270;10.544;2024-03-22T08:46:28;13.50;99.90
7530;DHT22;3806;52.270;10.544;2024-03-22T08:48:53;13.60;99.90
7530;DHT22;3806;52.270;10.544;2024-03-22T08:51:19;13.60;99.90
7530;DHT22;3806;52.270;10.544;2024-03-22T08:53:44;13.70;99.90
7530;DHT22;3806;52.270;10.544;2024-03-22T08:56:10;13.70;99.90
7530;DHT22;3806;52.270;10.544;2024-03-22T08:58:36;13.70;99.90
7530;DHT22;3806;52.270;10.544;2024-03-22T09:01:01;13.70;99.90
7530;DHT22;3806;52.270;10.544;2024-03-22T09:03:27;13.70;99.90
7530;DHT22;3806;52.270;10.544;2024-03-22T09:05:53;13.70;99.90
7530;DHT22;3806;52.270;10.544;2024-03-22T09:08:19;13.70;99.90
7530;DHT22;3806;52.270;10.544;2024-03-22T09:10:45;13.70;99.90
7530;DHT22;3806;52.270;10.544;2024-03-22T09:13:10;13.80;99.90
7530;DHT22;3806;52.270;10.544;2024-03-22T09:15:38;13.80;99.90
7530;DHT22;3806;52.270;10.544;2024-03-22T09:18:04;13.90;99.90
7530;DHT22;3806;52.270;10.544;2024-03-22T09:20:29;14.00;99.90
7530;DHT22;3806;52.270;10.544;2024-03-22T09:22:55;14.10;99.90
7530;DHT22;3806;52.270;10.544;2024-03-22T09:25:20;14.20;99.90
7530;DHT22;3806;52.270;10.544;2024-03-22T09:27:46;14.30;99.90
7530;DHT22;3806;52.270;10.544;2024-03-22T09:30:12;14.40;99.90
7530;DHT22;3806;52.270;10.544;2024-03-22T09:32:38;14.40;99.90
7530;DHT22;3806;52.270;10.544;2024-03-22T09:35:03;14.40;99.90
7530;DHT22;3806;52.270;10.544;2024-03-22T09:37:29;14.30;99.90
7530;DHT22;3806;52.270;10.544;2024-03-22T09:39:54;14.20;99.90
7530;DHT22;3806;52.270;10.544;2024-03-22T09:42:22;14.20;99.90
7530;DHT22;3806;52.270;10.544;2024-03-22T09:44:49;14.30;99.90
7530;DHT22;3806;52.270;10.544;2024-03-22T09:47:16;14.40;99.90
7530;DHT22;3806;52.270;10.544;2024-03-22T09:49:42;14.30;99.90
7530;DHT22;3806;52.270;10.544;2024-03-22T09:52:15;14.30;99.90
7530;DHT22;3806;52.270;10.544;2024-03-22T09:54:44;14.20;99.90
7530;DHT22;3806;52.270;10.544;2024-03-22T09:57:14;14.20;99.90
7530;DHT22;3806;52.270;10.544;2024-03-22T09:59:41;14.20;99.90
7530;DHT22;3806;52.270;10.544;2024-03-22T10:02:09;14.20;99.90
7530;DHT22;3806;52.270;10.544;2024-03-22T10:04:36;14.30;99.90
7530;DHT22;3806;52.270;10.544;2024-03-22T10:07:02;14.30;99.90
7530;DHT22;3806;52.270;10.544;2024-03-22T10:09:29;14.40;99.90
7530;DHT22;3806;52.270;10.544;2024-03-22T10:11:56;14.40;99.90
7530;DHT22;3806;52.270;10.544;2024-03-22T10:14:21;14.50;99.90
7530;DHT22;3806;52.270;10.544;2024-03-22T10:16:47;14.50;99.90
7530;DHT22;3806;52.270;10.544;2024-03-22T10:19:12;14.60;99.90
7530;DHT22;3806;52.270;10.544;2024-03-22T10:21:38;14.60;99.90
7530;DHT22;3806;52.270;10.544;2024-03-22T10:24:03;14.60;99.90
7530;DHT22;3806;52.270;10.544;2024-03-22T10:26:32;14.70;99.90
7530;DHT22;3806;52.270;10.544;2024-03-22T10:28:57;14.80;99.90
7530;DHT22;3806;52.270;10.544;2024-03-22T10:31:23;14.90;99.80
7530;DHT22;3806;52.270;10.544;2024-03-22T10:33:49;15.10;99.70
7530;DHT22;3806;52.270;10.544;2024-03-22T10:36:16;15.30;99.20
7530;DHT22;3806;52.270;10.544;2024-03-22T10:38:42;15.30;99.10
7530;DHT22;3806;52.270;10.544;2024-03-22T10:41:09;15.40;98.70
7530;DHT22;3806;52.270;10.544;2024-03-22T10:43:35;15.40;98.80
7530;DHT22;3806;52.270;10.544;2024-03-22T10:46:02;15.40;98.60
7530;DHT22;3806;52.270;10.544;2024-03-22T10:48:30;15.50;98.30
7530;DHT22;3806;52.270;10.544;2024-03-22T10:50:59;15.60;98.10
7530;DHT22;3806;52.270;10.544;2024-03-22T10:53:25;15.80;97.90
7530;DHT22;3806;52.270;10.544;2024-03-22T10:55:53;15.90;97.60
7530;DHT22;3806;52.270;10.544;2024-03-22T10:58:24;15.90;97.40
7530;DHT22;3806;52.270;10.544;2024-03-22T11:00:54;16.10;97.20
7530;DHT22;3806;52.270;10.544;2024-03-22T11:03:24;16.30;96.80
7530;DHT22;3806;52.270;10.544;2024-03-22T11:05:54;16.40;96.40
7530;DHT22;3806;52.270;10.544;2024-03-22T11:08:28;16.40;96.40
7530;DHT22;3806;52.270;10.544;2024-03-22T11:10:56;16.30;96.50
7530;DHT22;3806;52.270;10.544;2024-03-22T11:13:22;16.30;96.50
7530;DHT22;3806;52.270;10.544;2024-03-22T11:15:50;16.30;96.20
7530;DHT22;3806;52.270;10.544;2024-03-22T11:18:16;16.20;96.50
7530;DHT22;3806;52.270;10.544;2024-03-22T11:20:42;16.10;96.60
7530;DHT22;3806;52.270;10.544;2024-03-22T11:23:09;15.90;96.80
7530;DHT22;3806;52.270;10.544;2024-03-22T11:25:34;15.90;97.20
7530;DHT22;3806;52.270;10.544;2024-03-22T11:28:00;15.80;97.40
7530;DHT22;3806;52.270;10.544;2024-03-22T11:30:28;15.70;97.70
7530;DHT22;3806;52.270;10.544;2024-03-22T11:32:54;15.60;98.20
7530;DHT22;3806;52.270;10.544;2024-03-22T11:35:21;15.60;98.50
7530;DHT22;3806;52.270;10.544;2024-03-22T11:37:46;15.60;98.70
7530;DHT22;3806;52.270;10.544;2024-03-22T11:40:12;15.50;99.40
7530;DHT22;3806;52.270;10.544;2024-03-22T11:42:44;15.50;99.50
7530;DHT22;3806;52.270;10.544;2024-03-22T11:45:12;15.30;98.20
7530;DHT22;3806;52.270;10.544;2024-03-22T11:47:39;15.10;97.20
7530;DHT22;3806;52.270;10.544;2024-03-22T11:50:05;15.00;97.40
7530;DHT22;3806;52.270;10.544;2024-03-22T11:52:31;15.00;97.80
7530;DHT22;3806;52.270;10.544;2024-03-22T11:54:57;15.00;97.80
7530;DHT22;3806;52.270;10.544;2024-03-22T11:57:23;15.20;97.60
7530;DHT22;3806;52.270;10.544;2024-03-22T11:59:50;15.40;97.30
7530;DHT22;3806;52.270;10.544;2024-03-22T12:02:15;15.60;97.20
7530;DHT22;3806;52.270;10.544;2024-03-22T12:04:47;15.70;96.50
7530;DHT22;3806;52.270;10.544;2024-03-22T12:07:13;15.90;96.20
7530;DHT22;3806;52.270;10.544;2024-03-22T12:09:42;16.00;95.90
7530;DHT22;3806;52.270;10.544;2024-03-22T12:12:11;16.10;95.10
7530;DHT22;3806;52.270;10.544;2024-03-22T12:14:37;16.00;94.70
7530;DHT22;3806;52.270;10.544;2024-03-22T12:17:03;16.00;94.30
7530;DHT22;3806;52.270;10.544;2024-03-22T12:19:29;16.00;94.50
7530;DHT22;3806;52.270;10.544;2024-03-22T12:21:55;16.00;94.60
7530;DHT22;3806;52.270;10.544;2024-03-22T12:24:21;16.00;94.70
7530;DHT22;3806;52.270;10.544;2024-03-22T12:26:47;16.10;94.60
7530;DHT22;3806;52.270;10.544;2024-03-22T12:29:15;16.10;94.60
7530;DHT22;3806;52.270;10.544;2024-03-22T12:31:40;16.10;94.50
7530;DHT22;3806;52.270;10.544;2024-03-22T12:34:06;16.00;94.30
7530;DHT22;3806;52.270;10.544;2024-03-22T12:36:32;15.90;94.50
7530;DHT22;3806;52.270;10.544;2024-03-22T12:38:57;15.90;94.80
7530;DHT22;3806;52.270;10.544;2024-03-22T12:41:23;16.00;95.20
7530;DHT22;3806;52.270;10.544;2024-03-22T12:43:48;16.00;94.90
7530;DHT22;3806;52.270;10.544;2024-03-22T12:46:14;16.00;94.90
7530;DHT22;3806;52.270;10.544;2024-03-22T12:48:39;16.10;95.00
7530;DHT22;3806;52.270;10.544;2024-03-22T12:51:06;16.10;94.90
7530;DHT22;3806;52.270;10.544;2024-03-22T12:53:32;16.10;94.90
7530;DHT22;3806;52.270;10.544;2024-03-22T12:55:57;16.00;94.50
7530;DHT22;3806;52.270;10.544;2024-03-22T12:58:23;15.90;94.80
7530;DHT22;3806;52.270;10.544;2024-03-22T13:00:48;15.90;94.90
7530;DHT22;3806;52.270;10.544;2024-03-22T13:03:14;15.90;94.90
7530;DHT22;3806;52.270;10.544;2024-03-22T13:05:41;15.80;95.00
7530;DHT22;3806;52.270;10.544;2024-03-22T13:08:07;15.80;95.10
7530;DHT22;3806;52.270;10.544;2024-03-22T13:10:32;15.70;95.40
7530;DHT22;3806;52.270;10.544;2024-03-22T13:12:58;15.70;95.60
7530;DHT22;3806;52.270;10.544;2024-03-22T13:15:23;15.60;95.80
7530;DHT22;3806;52.270;10.544;2024-03-22T13:17:50;15.50;95.90
7530;DHT22;3806;52.270;10.544;2024-03-22T13:20:15;15.50;96.00
7530;DHT22;3806;52.270;10.544;2024-03-22T13:22:43;15.50;96.10
7530;DHT22;3806;52.270;10.544;2024-03-22T13:25:09;15.40;96.20
7530;DHT22;3806;52.270;10.544;2024-03-22T13:27:36;15.40;96.40
7530;DHT22;3806;52.270;10.544;2024-03-22T13:30:05;15.40;96.40
7530;DHT22;3806;52.270;10.544;2024-03-22T13:32:31;15.40;96.50
7530;DHT22;3806;52.270;10.544;2024-03-22T13:34:56;15.30;96.60
7530;DHT22;3806;52.270;10.544;2024-03-22T13:37:22;15.30;96.70
7530;DHT22;3806;52.270;10.544;2024-03-22T13:39:50;15.30;97.00
7530;DHT22;3806;52.270;10.544;2024-03-22T13:42:16;15.30;97.30
7530;DHT22;3806;52.270;10.544;2024-03-22T13:44:42;15.30;97.40
7530;DHT22;3806;52.270;10.544;2024-03-22T13:47:08;15.30;97.70
7530;DHT22;3806;52.270;10.544;2024-03-22T13:49:33;15.30;97.70
7530;DHT22;3806;52.270;10.544;2024-03-22T13:51:59;15.20;97.90
7530;DHT22;3806;52.270;10.544;2024-03-22T13:54:25;15.10;98.30
7530;DHT22;3806;52.270;10.544;2024-03-22T13:56:50;15.10;98.80
7530;DHT22;3806;52.270;10.544;2024-03-22T13:59:16;15.00;99.20
7530;DHT22;3806;52.270;10.544;2024-03-22T14:01:42;15.00;99.60
7530;DHT22;3806;52.270;10.544;2024-03-22T14:04:11;14.90;99.90
7530;DHT22;3806;52.270;10.544;2024-03-22T14:06:38;14.80;99.90
7530;DHT22;3806;52.270;10.544;2024-03-22T14:09:04;14.90;99.90
7530;DHT22;3806;52.270;10.544;2024-03-22T14:11:31;14.90;99.90
7530;DHT22;3806;52.270;10.544;2024-03-22T14:13:57;14.90;99.90
7530;DHT22;3806;52.270;10.544;2024-03-22T14:16:23;14.90;99.90
7530;DHT22;3806;52.270;10.544;2024-03-22T14:18:48;14.90;99.90
7530;DHT22;3806;52.270;10.544;2024-03-22T14:21:15;14.80;99.90
7530;DHT22;3806;52.270;10.544;2024-03-22T14:23:48;14.70;99.90
7530;DHT22;3806;52.270;10.544;2024-03-22T14:26:15;14.70;99.90
7530;DHT22;3806;52.270;10.544;2024-03-22T14:28:40;14.60;99.90
7530;DHT22;3806;52.270;10.544;2024-03-22T14:31:09;14.50;99.90
7530;DHT22;3806;52.270;10.544;2024-03-22T14:33:36;14.50;99.90
7530;DHT22;3806;52.270;10.544;2024-03-22T14:36:06;14.40;99.90
7530;DHT22;3806;52.270;10.544;2024-03-22T14:38:33;14.50;99.90
7530;DHT22;3806;52.270;10.544;2024-03-22T14:40:58;14.40;99.90
7530;DHT22;3806;52.270;10.544;2024-03-22T14:43:25;14.40;99.90
7530;DHT22;3806;52.270;10.544;2024-03-22T14:45:51;14.30;99.90
7530;DHT22;3806;52.270;10.544;2024-03-22T14:48:21;14.20;99.90
7530;DHT22;3806;52.270;10.544;2024-03-22T14:50:48;14.20;99.90
7530;DHT22;3806;52.270;10.544;2024-03-22T14:53:14;14.00;99.90
7530;DHT22;3806;52.270;10.544;2024-03-22T14:55:51;14.00;99.90
7530;DHT22;3806;52.270;10.544;2024-03-22T14:58:16;13.90;99.90
7530;DHT22;3806;52.270;10.544;2024-03-22T15:00:42;13.80;99.90
7530;DHT22;3806;52.270;10.544;2024-03-22T15:03:07;13.70;99.90
7530;DHT22;3806;52.270;10.544;2024-03-22T15:05:33;13.70;99.90
7530;DHT22;3806;52.270;10.544;2024-03-22T15:07:58;13.60;99.90
7530;DHT22;3806;52.270;10.544;2024-03-22T15:10:24;13.60;99.90
7530;DHT22;3806;52.270;10.544;2024-03-22T15:12:49;13.50;99.90
7530;DHT22;3806;52.270;10.544;2024-03-22T15:15:15;13.50;99.90
7530;DHT22;3806;52.270;10.544;2024-03-22T15:17:40;13.50;99.90
7530;DHT22;3806;52.270;10.544;2024-03-22T15:20:07;13.40;99.90
7530;DHT22;3806;52.270;10.544;2024-03-22T15:22:34;13.40;99.90
7530;DHT22;3806;52.270;10.544;2024-03-22T15:24:59;13.30;99.90
7530;DHT22;3806;52.270;10.544;2024-03-22T15:27:25;13.30;99.90
7530;DHT22;3806;52.270;10.544;2024-03-22T15:29:52;13.20;99.90
7530;DHT22;3806;52.270;10.544;2024-03-22T15:32:18;13.20;99.90
7530;DHT22;3806;52.270;10.544;2024-03-22T15:34:45;13.10;99.90
7530;DHT22;3806;52.270;10.544;2024-03-22T15:37:10;13.10;99.90